sensor_id;sensor_type;location;lat;lon;timestamp;temperature;humidity
39099;DHT22;24844;52.380;7.018;2023-07-29T00:00:21;19.80;99.90
39099;DHT22;24844;52.380;7.018;2023-07-29T00:03:14;20.00;99.90
39099;DHT22;24844;52.380;7.018;2023-07-29T00:05:42;19.90;99.90
39099;DHT22;24844;52.380;7.018;2023-07-29T00:10:56;19.70;99.90
39099;DHT22;24844;52.380;7.018;2023-07-29T00:13:26;19.60;99.90
39099;DHT22;24844;52.380;7.018;2023-07-29T00:15:58;19.60;99.90
39099;DHT22;24844;52.380;7.018;2023-07-29T00:18:33;19.70;99.90
39099;DHT22;24844;52.380;7.018;2023-07-29T00:23:57;19.70;99.90
39099;DHT22;24844;52.380;7.018;2023-07-29T00:26:26;19.80;99.90
39099;DHT22;24844;52.380;7.018;2023-07-29T00:28:57;19.60;99.90
39099;DHT22;24844;52.380;7.018;2023-07-29T00:31:23;19.60;99.90
39099;DHT22;24844;52.380;7.018;2023-07-29T00:33:55;19.30;99.90
39099;DHT22;24844;52.380;7.018;2023-07-29T00:36:25;19.40;99.90
39099;DHT22;24844;52.380;7.018;2023-07-29T00:38:52;19.50;99.90
39099;DHT22;24844;52.380;7.018;2023-07-29T00:41:21;19.60;99.90
39099;DHT22;24844;52.380;7.018;2023-07-29T00:43:50;19.60;99.90
39099;DHT22;24844;52.380;7.018;2023-07-29T00:46:33;19.70;99.90
39099;DHT22;24844;52.380;7.018;2023-07-29T00:49:25;19.80;99.90
39099;DHT22;24844;52.380;7.018;2023-07-29T00:52:11;20.00;99.90
39099;DHT22;24844;52.380;7.018;2023-07-29T00:54:54;20.00;99.90
39099;DHT22;24844;52.380;7.018;2023-07-29T00:57:26;19.90;99.90
39099;DHT22;24844;52.380;7.018;2023-07-29T00:59:57;20.00;99.90
39099;DHT22;24844;52.380;7.018;2023-07-29T01:05:30;19.90;99.90
39099;DHT22;24844;52.380;7.018;2023-07-29T01:11:49;19.80;99.90
39099;DHT22;24844;52.380;7.018;2023-07-29T01:17:13;19.70;99.90
39099;DHT22;24844;52.380;7.018;2023-07-29T01:20:09;19.60;99.90
39099;DHT22;24844;52.380;7.018;2023-07-29T01:22:37;19.40;99.90
39099;DHT22;24844;52.380;7.018;2023-07-29T01:25:08;19.30;99.90
39099;DHT22;24844;52.380;7.018;2023-07-29T01:27:37;19.30;99.90
39099;DHT22;24844;52.380;7.018;2023-07-29T01:30:07;19.30;99.90
39099;DHT22;24844;52.380;7.018;2023-07-29T01:33:14;19.30;99.90
39099;DHT22;24844;52.380;7.018;2023-07-29T01:38:30;19.20;99.90
39099;DHT22;24844;52.380;7.018;2023-07-29T01:41:08;19.10;99.90
39099;DHT22;24844;52.380;7.018;2023-07-29T01:43:34;18.70;99.90
39099;DHT22;24844;52.380;7.018;2023-07-29T01:46:05;18.60;99.90
39099;DHT22;24844;52.380;7.018;2023-07-29T01:48:31;18.70;99.90
39099;DHT22;24844;52.380;7.018;2023-07-29T01:51:00;18.80;99.90
39099;DHT22;24844;52.380;7.018;2023-07-29T01:53:26;18.90;99.90
39099;DHT22;24844;52.380;7.018;2023-07-29T01:55:54;18.80;99.90
39099;DHT22;24844;52.380;7.018;2023-07-29T01:58:25;18.70;99.90
39099;DHT22;24844;52.380;7.018;2023-07-29T02:00:54;18.60;99.90
39099;DHT22;24844;52.380;7.018;2023-07-29T02:03:22;18.70;99.90
39099;DHT22;24844;52.380;7.018;2023-07-29T02:05:56;18.60;99.90
39099;DHT22;24844;52.380;7.018;2023-07-29T02:08:22;18.70;99.90
39099;DHT22;24844;52.380;7.018;2023-07-29T02:10:59;18.70;99.90
39099;DHT22;24844;52.380;7.018;2023-07-29T02:13:33;18.60;99.90
39099;DHT22;24844;52.380;7.018;2023-07-29T02:16:04;18.60;99.90
39099;DHT22;24844;52.380;7.018;2023-07-29T02:18:30;18.50;99.90
39099;DHT22;24844;52.380;7.018;2023-07-29T02:21:00;18.60;99.90
39099;DHT22;24844;52.380;7.018;2023-07-29T02:23:29;18.70;99.90
39099;DHT22;24844;52.380;7.018;2023-07-29T02:26:06;18.70;99.90
39099;DHT22;24844;52.380;7.018;2023-07-29T02:28:34;18.60;99.90
39099;DHT22;24844;52.380;7.018;2023-07-29T02:31:22;18.40;99.90
39099;DHT22;24844;52.380;7.018;2023-07-29T02:33:54;18.50;99.90
39099;DHT22;24844;52.380;7.018;2023-07-29T02:36:25;18.60;99.90
39099;DHT22;24844;52.380;7.018;2023-07-29T02:38:50;18.60;99.90
39099;DHT22;24844;52.380;7.018;2023-07-29T02:41:28;18.60;99.90
39099;DHT22;24844;52.380;7.018;2023-07-29T02:44:01;18.60;99.90
39099;DHT22;24844;52.380;7.018;2023-07-29T02:46:28;18.40;99.90
39099;DHT22;24844;52.380;7.018;2023-07-29T02:48:53;18.30;99.90
39099;DHT22;24844;52.380;7.018;2023-07-29T02:51:22;18.20;99.90
39099;DHT22;24844;52.380;7.018;2023-07-29T02:53:53;18.10;99.90
39099;DHT22;24844;52.380;7.018;2023-07-29T02:56:19;18.20;99.90
39099;DHT22;24844;52.380;7.018;2023-07-29T02:58:45;18.20;99.90
39099;DHT22;24844;52.380;7.018;2023-07-29T03:01:10;18.40;99.90
39099;DHT22;24844;52.380;7.018;2023-07-29T03:03:37;18.50;99.90
39099;DHT22;24844;52.380;7.018;2023-07-29T03:06:24;18.60;99.90
39099;DHT22;24844;52.380;7.018;2023-07-29T03:08:52;18.70;99.90
39099;DHT22;24844;52.380;7.018;2023-07-29T03:11:23;18.90;99.90
39099;DHT22;24844;52.380;7.018;2023-07-29T03:13:49;18.90;99.90
39099;DHT22;24844;52.380;7.018;2023-07-29T03:16:20;18.90;99.90
39099;DHT22;24844;52.380;7.018;2023-07-29T03:18:52;18.90;99.90
39099;DHT22;24844;52.380;7.018;2023-07-29T03:21:32;18.90;99.90
39099;DHT22;24844;52.380;7.018;2023-07-29T03:23:58;19.00;99.90
39099;DHT22;24844;52.380;7.018;2023-07-29T03:26:24;19.10;99.90
39099;DHT22;24844;52.380;7.018;2023-07-29T03:28:49;19.00;99.90
39099;DHT22;24844;52.380;7.018;2023-07-29T03:31:15;19.00;99.90
39099;DHT22;24844;52.380;7.018;2023-07-29T03:33:48;19.00;99.90
39099;DHT22;24844;52.380;7.018;2023-07-29T03:36:40;18.90;99.90
39099;DHT22;24844;52.380;7.018;2023-07-29T03:39:06;19.00;99.90
39099;DHT22;24844;52.380;7.018;2023-07-29T03:41:40;18.80;99.90
39099;DHT22;24844;52.380;7.018;2023-07-29T03:44:05;18.80;99.90
39099;DHT22;24844;52.380;7.018;2023-07-29T03:46:31;18.80;99.90
39099;DHT22;24844;52.380;7.018;2023-07-29T03:48:57;18.50;99.90
39099;DHT22;24844;52.380;7.018;2023-07-29T03:51:25;18.60;99.90
39099;DHT22;24844;52.380;7.018;2023-07-29T03:53:53;18.50;99.90
39099;DHT22;24844;52.380;7.018;2023-07-29T03:56:19;18.50;99.90
39099;DHT22;24844;52.380;7.018;2023-07-29T03:58:46;18.60;99.90
39099;DHT22;24844;52.380;7.018;2023-07-29T04:01:19;18.40;99.90
39099;DHT22;24844;52.380;7.018;2023-07-29T04:03:45;18.60;99.90
39099;DHT22;24844;52.380;7.018;2023-07-29T04:06:14;18.80;99.90
39099;DHT22;24844;52.380;7.018;2023-07-29T04:08:43;18.90;99.90
39099;DHT22;24844;52.380;7.018;2023-07-29T04:11:11;18.80;99.90
39099;DHT22;24844;52.380;7.018;2023-07-29T04:13:48;18.70;99.90
39099;DHT22;24844;52.380;7.018;2023-07-29T04:16:14;18.90;99.90
39099;DHT22;24844;52.380;7.018;2023-07-29T04:18:45;18.90;99.90
39099;DHT22;24844;52.380;7.018;2023-07-29T04:21:18;19.00;99.90
39099;DHT22;24844;52.380;7.018;2023-07-29T04:23:44;19.00;99.90
39099;DHT22;24844;52.380;7.018;2023-07-29T04:26:15;18.90;99.90
39099;DHT22;24844;52.380;7.018;2023-07-29T04:28:42;19.00;99.90
39099;DHT22;24844;52.380;7.018;2023-07-29T04:31:11;19.00;99.90
39099;DHT22;24844;52.380;7.018;2023-07-29T04:33:36;19.00;99.90
39099;DHT22;24844;52.380;7.018;2023-07-29T04:36:02;19.00;99.90
39099;DHT22;24844;52.380;7.018;2023-07-29T04:38:31;19.00;99.90
39099;DHT22;24844;52.380;7.018;2023-07-29T04:41:00;19.20;99.90
39099;DHT22;24844;52.380;7.018;2023-07-29T04:43:35;19.10;99.90
39099;DHT22;24844;52.380;7.018;2023-07-29T04:46:01;19.00;99.90
39099;DHT22;24844;52.380;7.018;2023-07-29T04:48:27;19.20;99.90
39099;DHT22;24844;52.380;7.018;2023-07-29T04:50:52;19.10;99.90
39099;DHT22;24844;52.380;7.018;2023-07-29T04:53:18;19.30;99.90
39099;DHT22;24844;52.380;7.018;2023-07-29T04:55:47;19.10;99.90
39099;DHT22;24844;52.380;7.018;2023-07-29T04:58:16;19.00;99.90
39099;DHT22;24844;52.380;7.018;2023-07-29T05:00:41;19.00;99.90
39099;DHT22;24844;52.380;7.018;2023-07-29T05:03:07;19.00;99.90
39099;DHT22;24844;52.380;7.018;2023-07-29T05:05:47;19.20;99.90
39099;DHT22;24844;52.380;7.018;2023-07-29T05:08:15;19.40;99.90
39099;DHT22;24844;52.380;7.018;2023-07-29T05:10:41;19.40;99.90
39099;DHT22;24844;52.380;7.018;2023-07-29T05:13:07;19.50;99.90
39099;DHT22;24844;52.380;7.018;2023-07-29T05:15:33;19.60;99.90
39099;DHT22;24844;52.380;7.018;2023-07-29T05:17:58;19.70;99.90
39099;DHT22;24844;52.380;7.018;2023-07-29T05:20:27;19.70;99.90
39099;DHT22;24844;52.380;7.018;2023-07-29T05:22:53;19.60;99.90
39099;DHT22;24844;52.380;7.018;2023-07-29T05:25:18;19.40;99.90
39099;DHT22;24844;52.380;7.018;2023-07-29T05:27:44;19.50;99.90
39099;DHT22;24844;52.380;7.018;2023-07-29T05:30:10;19.60;99.90
39099;DHT22;24844;52.380;7.018;2023-07-29T05:32:38;19.50;99.90
39099;DHT22;24844;52.380;7.018;2023-07-29T05:35:07;19.60;99.90
39099;DHT22;24844;52.380;7.018;2023-07-29T05:37:37;19.70;99.90
39099;DHT22;24844;52.380;7.018;2023-07-29T05:40:07;19.60;99.90
39099;DHT22;24844;52.380;7.018;2023-07-29T05:42:39;19.80;99.90
39099;DHT22;24844;52.380;7.018;2023-07-29T05:45:08;19.80;99.90
39099;DHT22;24844;52.380;7.018;2023-07-29T05:47:40;19.70;99.90
39099;DHT22;24844;52.380;7.018;2023-07-29T05:50:07;19.80;99.90
39099;DHT22;24844;52.380;7.018;2023-07-29T05:52:36;19.70;99.90
39099;DHT22;24844;52.380;7.018;2023-07-29T05:55:02;19.80;99.90
39099;DHT22;24844;52.380;7.018;2023-07-29T05:57:28;19.90;99.90
39099;DHT22;24844;52.380;7.018;2023-07-29T05:59:56;20.10;99.90
39099;DHT22;24844;52.380;7.018;2023-07-29T06:02:21;20.10;99.90
39099;DHT22;24844;52.380;7.018;2023-07-29T06:04:53;20.00;99.90
39099;DHT22;24844;52.380;7.018;2023-07-29T06:07:18;20.30;99.90
39099;DHT22;24844;52.380;7.018;2023-07-29T06:09:44;20.40;99.90
39099;DHT22;24844;52.380;7.018;2023-07-29T06:12:12;20.50;99.90
39099;DHT22;24844;52.380;7.018;2023-07-29T06:14:38;20.60;99.90
39099;DHT22;24844;52.380;7.018;2023-07-29T06:17:04;20.70;99.90
39099;DHT22;24844;52.380;7.018;2023-07-29T06:19:35;20.70;99.90
39099;DHT22;24844;52.380;7.018;2023-07-29T06:22:03;20.80;99.90
39099;DHT22;24844;52.380;7.018;2023-07-29T06:24:38;20.90;99.90
39099;DHT22;24844;52.380;7.018;2023-07-29T06:27:10;21.10;99.90
39099;DHT22;24844;52.380;7.018;2023-07-29T06:29:46;21.20;99.90
39099;DHT22;24844;52.380;7.018;2023-07-29T06:35:02;21.20;99.90
39099;DHT22;24844;52.380;7.018;2023-07-29T06:37:27;21.00;99.90
39099;DHT22;24844;52.380;7.018;2023-07-29T06:40:01;21.30;99.90
39099;DHT22;24844;52.380;7.018;2023-07-29T06:42:29;21.60;99.90
39099;DHT22;24844;52.380;7.018;2023-07-29T06:44:58;21.60;99.90
39099;DHT22;24844;52.380;7.018;2023-07-29T06:47:44;21.80;99.90
39099;DHT22;24844;52.380;7.018;2023-07-29T06:50:25;21.90;99.90
39099;DHT22;24844;52.380;7.018;2023-07-29T06:52:56;22.10;99.90
39099;DHT22;24844;52.380;7.018;2023-07-29T06:55:25;22.20;99.90
39099;DHT22;24844;52.380;7.018;2023-07-29T07:00:43;21.90;99.90
39099;DHT22;24844;52.380;7.018;2023-07-29T07:03:11;22.10;99.90
39099;DHT22;24844;52.380;7.018;2023-07-29T07:08:33;22.10;99.90
39099;DHT22;24844;52.380;7.018;2023-07-29T07:11:01;21.80;99.90
39099;DHT22;24844;52.380;7.018;2023-07-29T07:13:29;21.90;99.90
39099;DHT22;24844;52.380;7.018;2023-07-29T07:16:13;21.70;99.90
39099;DHT22;24844;52.380;7.018;2023-07-29T07:18:55;21.90;99.90
39099;DHT22;24844;52.380;7.018;2023-07-29T07:21:24;22.10;99.90
39099;DHT22;24844;52.380;7.018;2023-07-29T07:23:52;22.20;99.90
39099;DHT22;24844;52.380;7.018;2023-07-29T07:26:43;21.90;99.90
39099;DHT22;24844;52.380;7.018;2023-07-29T07:29:27;22.20;99.90
39099;DHT22;24844;52.380;7.018;2023-07-29T07:32:04;22.30;99.90
39099;DHT22;24844;52.380;7.018;2023-07-29T07:34:30;22.50;99.90
39099;DHT22;24844;52.380;7.018;2023-07-29T07:37:14;22.70;99.90
39099;DHT22;24844;52.380;7.018;2023-07-29T07:39:53;22.70;99.90
39099;DHT22;24844;52.380;7.018;2023-07-29T07:42:22;22.80;99.90
39099;DHT22;24844;52.380;7.018;2023-07-29T07:44:47;23.60;99.90
39099;DHT22;24844;52.380;7.018;2023-07-29T07:47:16;24.30;99.90
39099;DHT22;24844;52.380;7.018;2023-07-29T07:49:41;24.50;99.90
39099;DHT22;24844;52.380;7.018;2023-07-29T07:52:07;24.30;99.90
39099;DHT22;24844;52.380;7.018;2023-07-29T07:54:33;23.70;99.90
39099;DHT22;24844;52.380;7.018;2023-07-29T07:56:58;23.70;99.90
39099;DHT22;24844;52.380;7.018;2023-07-29T07:59:24;23.80;99.90
39099;DHT22;24844;52.380;7.018;2023-07-29T08:01:50;24.10;99.90
39099;DHT22;24844;52.380;7.018;2023-07-29T08:04:17;24.10;99.90
39099;DHT22;24844;52.380;7.018;2023-07-29T08:06:43;24.00;99.90
39099;DHT22;24844;52.380;7.018;2023-07-29T08:09:08;23.50;99.90
39099;DHT22;24844;52.380;7.018;2023-07-29T08:11:34;23.90;99.90
39099;DHT22;24844;52.380;7.018;2023-07-29T08:14:00;25.20;99.90
39099;DHT22;24844;52.380;7.018;2023-07-29T08:16:25;26.80;99.90
39099;DHT22;24844;52.380;7.018;2023-07-29T08:19:06;27.00;99.90
39099;DHT22;24844;52.380;7.018;2023-07-29T08:21:38;26.50;99.40
39099;DHT22;24844;52.380;7.018;2023-07-29T08:27:24;28.00;98.20
39099;DHT22;24844;52.380;7.018;2023-07-29T08:30:35;28.80;97.20
39099;DHT22;24844;52.380;7.018;2023-07-29T08:43:32;31.70;95.00
39099;DHT22;24844;52.380;7.018;2023-07-29T09:06:31;30.50;90.30
39099;DHT22;24844;52.380;7.018;2023-07-29T09:22:59;30.20;91.30
39099;DHT22;24844;52.380;7.018;2023-07-29T09:26:03;30.80;90.80
39099;DHT22;24844;52.380;7.018;2023-07-29T09:28:39;30.90;90.70
39099;DHT22;24844;52.380;7.018;2023-07-29T09:31:31;30.50;91.00
39099;DHT22;24844;52.380;7.018;2023-07-29T09:37:43;31.70;90.40
39099;DHT22;24844;52.380;7.018;2023-07-29T09:40:16;31.90;89.40
39099;DHT22;24844;52.380;7.018;2023-07-29T09:43:33;31.40;90.00
39099;DHT22;24844;52.380;7.018;2023-07-29T09:46:03;32.40;90.30
39099;DHT22;24844;52.380;7.018;2023-07-29T09:49:17;32.80;88.40
39099;DHT22;24844;52.380;7.018;2023-07-29T09:51:42;32.40;89.20
39099;DHT22;24844;52.380;7.018;2023-07-29T09:54:08;32.30;87.60
39099;DHT22;24844;52.380;7.018;2023-07-29T09:56:40;31.20;89.60
39099;DHT22;24844;52.380;7.018;2023-07-29T09:59:06;30.60;89.80
39099;DHT22;24844;52.380;7.018;2023-07-29T10:01:32;29.70;90.60
39099;DHT22;24844;52.380;7.018;2023-07-29T10:04:00;29.30;91.10
39099;DHT22;24844;52.380;7.018;2023-07-29T10:06:27;28.70;91.80
39099;DHT22;24844;52.380;7.018;2023-07-29T10:08:54;28.30;92.20
39099;DHT22;24844;52.380;7.018;2023-07-29T10:11:21;27.40;93.40
39099;DHT22;24844;52.380;7.018;2023-07-29T10:13:48;26.80;94.10
39099;DHT22;24844;52.380;7.018;2023-07-29T10:16:13;26.50;95.10
39099;DHT22;24844;52.380;7.018;2023-07-29T10:18:40;26.60;94.70
39099;DHT22;24844;52.380;7.018;2023-07-29T10:21:07;26.40;95.40
39099;DHT22;24844;52.380;7.018;2023-07-29T10:23:38;26.40;95.50
39099;DHT22;24844;52.380;7.018;2023-07-29T10:26:10;26.10;95.80
39099;DHT22;24844;52.380;7.018;2023-07-29T10:28:40;25.80;97.00
39099;DHT22;24844;52.380;7.018;2023-07-29T10:31:07;25.20;97.60
39099;DHT22;24844;52.380;7.018;2023-07-29T10:33:33;25.10;97.90
39099;DHT22;24844;52.380;7.018;2023-07-29T10:35:59;25.00;98.80
39099;DHT22;24844;52.380;7.018;2023-07-29T10:38:26;25.40;98.30
39099;DHT22;24844;52.380;7.018;2023-07-29T10:40:56;25.70;98.10
39099;DHT22;24844;52.380;7.018;2023-07-29T10:45:50;24.90;99.40
39099;DHT22;24844;52.380;7.018;2023-07-29T10:51:26;25.60;98.40
39099;DHT22;24844;52.380;7.018;2023-07-29T10:53:57;26.10;98.00
39099;DHT22;24844;52.380;7.018;2023-07-29T10:56:32;26.40;97.30
39099;DHT22;24844;52.380;7.018;2023-07-29T10:59:02;26.60;97.60
39099;DHT22;24844;52.380;7.018;2023-07-29T11:02:01;26.90;97.10
39099;DHT22;24844;52.380;7.018;2023-07-29T11:04:29;27.30;96.80
39099;DHT22;24844;52.380;7.018;2023-07-29T11:12:43;28.40;95.60
39099;DHT22;24844;52.380;7.018;2023-07-29T11:20:14;27.60;95.50
39099;DHT22;24844;52.380;7.018;2023-07-29T11:22:40;27.10;95.90
39099;DHT22;24844;52.380;7.018;2023-07-29T11:25:08;26.50;96.40
39099;DHT22;24844;52.380;7.018;2023-07-29T11:27:35;26.50;96.50
39099;DHT22;24844;52.380;7.018;2023-07-29T11:30:03;26.50;96.80
39099;DHT22;24844;52.380;7.018;2023-07-29T11:32:30;26.10;97.50
39099;DHT22;24844;52.380;7.018;2023-07-29T11:34:57;26.30;97.20
39099;DHT22;24844;52.380;7.018;2023-07-29T11:37:22;26.50;96.70
39099;DHT22;24844;52.380;7.018;2023-07-29T11:39:48;26.50;97.50
39099;DHT22;24844;52.380;7.018;2023-07-29T11:42:14;26.70;97.40
39099;DHT22;24844;52.380;7.018;2023-07-29T11:44:40;26.80;97.60
39099;DHT22;24844;52.380;7.018;2023-07-29T11:47:11;26.90;96.90
39099;DHT22;24844;52.380;7.018;2023-07-29T11:49:40;26.40;97.30
39099;DHT22;24844;52.380;7.018;2023-07-29T11:52:10;25.80;97.50
39099;DHT22;24844;52.380;7.018;2023-07-29T11:54:48;25.70;97.80
39099;DHT22;24844;52.380;7.018;2023-07-29T11:57:38;25.80;98.90
39099;DHT22;24844;52.380;7.018;2023-07-29T12:02:51;25.90;97.90
39099;DHT22;24844;52.380;7.018;2023-07-29T12:05:18;25.40;98.30
39099;DHT22;24844;52.380;7.018;2023-07-29T12:08:12;25.40;99.00
39099;DHT22;24844;52.380;7.018;2023-07-29T12:10:53;25.40;99.90
39099;DHT22;24844;52.380;7.018;2023-07-29T12:13:36;25.20;99.90
39099;DHT22;24844;52.380;7.018;2023-07-29T12:23:09;25.50;99.90
39099;DHT22;24844;52.380;7.018;2023-07-29T12:25:46;25.80;99.90
39099;DHT22;24844;52.380;7.018;2023-07-29T12:28:15;26.40;99.90
39099;DHT22;24844;52.380;7.018;2023-07-29T12:30:44;26.30;99.90
39099;DHT22;24844;52.380;7.018;2023-07-29T12:33:44;26.70;99.90
39099;DHT22;24844;52.380;7.018;2023-07-29T12:40:00;26.70;99.90
39099;DHT22;24844;52.380;7.018;2023-07-29T12:46:02;26.50;99.90
39099;DHT22;24844;52.380;7.018;2023-07-29T12:48:28;26.90;99.90
39099;DHT22;24844;52.380;7.018;2023-07-29T12:50:54;26.80;99.90
39099;DHT22;24844;52.380;7.018;2023-07-29T12:53:40;26.40;99.90
39099;DHT22;24844;52.380;7.018;2023-07-29T12:56:22;26.20;99.90
39099;DHT22;24844;52.380;7.018;2023-07-29T12:59:09;26.00;99.90
39099;DHT22;24844;52.380;7.018;2023-07-29T13:01:34;26.10;99.90
39099;DHT22;24844;52.380;7.018;2023-07-29T13:04:00;26.20;99.90
39099;DHT22;24844;52.380;7.018;2023-07-29T13:06:31;25.80;99.90
39099;DHT22;24844;52.380;7.018;2023-07-29T13:08:59;25.60;99.90
39099;DHT22;24844;52.380;7.018;2023-07-29T13:11:25;25.00;99.90
39099;DHT22;24844;52.380;7.018;2023-07-29T13:13:54;24.60;99.90
39099;DHT22;24844;52.380;7.018;2023-07-29T13:16:20;24.50;99.90
39099;DHT22;24844;52.380;7.018;2023-07-29T13:18:50;24.20;99.90
39099;DHT22;24844;52.380;7.018;2023-07-29T13:21:15;24.30;99.90
39099;DHT22;24844;52.380;7.018;2023-07-29T13:23:44;24.30;99.90
39099;DHT22;24844;52.380;7.018;2023-07-29T13:26:09;24.30;99.90
39099;DHT22;24844;52.380;7.018;2023-07-29T13:28:36;24.40;99.90
39099;DHT22;24844;52.380;7.018;2023-07-29T13:31:02;24.50;99.90
39099;DHT22;24844;52.380;7.018;2023-07-29T13:33:28;24.60;99.90
39099;DHT22;24844;52.380;7.018;2023-07-29T13:35:59;24.50;99.90
39099;DHT22;24844;52.380;7.018;2023-07-29T13:38:29;24.60;99.90
39099;DHT22;24844;52.380;7.018;2023-07-29T13:40:54;24.10;99.90
39099;DHT22;24844;52.380;7.018;2023-07-29T13:43:20;24.30;99.90
39099;DHT22;24844;52.380;7.018;2023-07-29T13:45:46;24.10;99.90
39099;DHT22;24844;52.380;7.018;2023-07-29T13:48:14;24.20;99.90
39099;DHT22;24844;52.380;7.018;2023-07-29T13:50:39;24.20;99.90
39099;DHT22;24844;52.380;7.018;2023-07-29T13:53:06;24.40;99.90
39099;DHT22;24844;52.380;7.018;2023-07-29T13:55:32;24.40;99.90
39099;DHT22;24844;52.380;7.018;2023-07-29T13:57:58;24.50;99.90
39099;DHT22;24844;52.380;7.018;2023-07-29T14:00:23;24.80;99.90
39099;DHT22;24844;52.380;7.018;2023-07-29T14:02:49;25.30;99.90
39099;DHT22;24844;52.380;7.018;2023-07-29T14:05:15;25.30;99.90
39099;DHT22;24844;52.380;7.018;2023-07-29T14:07:40;25.30;99.90
39099;DHT22;24844;52.380;7.018;2023-07-29T14:10:06;25.30;99.90
39099;DHT22;24844;52.380;7.018;2023-07-29T14:12:32;25.30;99.90
39099;DHT22;24844;52.380;7.018;2023-07-29T14:14:58;25.10;99.90
39099;DHT22;24844;52.380;7.018;2023-07-29T14:17:23;25.00;99.90
39099;DHT22;24844;52.380;7.018;2023-07-29T14:19:52;25.10;99.90
39099;DHT22;24844;52.380;7.018;2023-07-29T14:22:18;24.80;99.90
39099;DHT22;24844;52.380;7.018;2023-07-29T14:24:43;25.10;99.90
39099;DHT22;24844;52.380;7.018;2023-07-29T14:27:12;25.10;99.90
39099;DHT22;24844;52.380;7.018;2023-07-29T14:29:39;25.10;99.90
39099;DHT22;24844;52.380;7.018;2023-07-29T14:32:05;25.30;99.90
39099;DHT22;24844;52.380;7.018;2023-07-29T14:34:31;25.20;99.90
39099;DHT22;24844;52.380;7.018;2023-07-29T14:36:58;25.00;99.90
39099;DHT22;24844;52.380;7.018;2023-07-29T14:39:24;24.80;99.90
39099;DHT22;24844;52.380;7.018;2023-07-29T14:41:50;24.20;99.90
39099;DHT22;24844;52.380;7.018;2023-07-29T14:44:15;24.20;99.90
39099;DHT22;24844;52.380;7.018;2023-07-29T14:46:41;24.30;99.90
39099;DHT22;24844;52.380;7.018;2023-07-29T14:49:07;24.20;99.90
39099;DHT22;24844;52.380;7.018;2023-07-29T14:55:00;24.40;99.90
39099;DHT22;24844;52.380;7.018;2023-07-29T14:57:38;24.40;99.90
39099;DHT22;24844;52.380;7.018;2023-07-29T15:00:10;24.60;99.90
39099;DHT22;24844;52.380;7.018;2023-07-29T15:02:47;24.40;99.90
39099;DHT22;24844;52.380;7.018;2023-07-29T15:05:51;24.60;99.90
39099;DHT22;24844;52.380;7.018;2023-07-29T15:08:43;24.40;99.90
39099;DHT22;24844;52.380;7.018;2023-07-29T15:11:14;24.50;99.90
39099;DHT22;24844;52.380;7.018;2023-07-29T15:13:47;24.40;99.90
39099;DHT22;24844;52.380;7.018;2023-07-29T15:16:38;24.20;99.90
39099;DHT22;24844;52.380;7.018;2023-07-29T15:19:04;23.60;99.90
39099;DHT22;24844;52.380;7.018;2023-07-29T15:21:53;23.80;99.90
39099;DHT22;24844;52.380;7.018;2023-07-29T15:24:24;23.90;99.90
39099;DHT22;24844;52.380;7.018;2023-07-29T15:27:13;24.10;99.90
39099;DHT22;24844;52.380;7.018;2023-07-29T15:29:50;24.20;99.90
39099;DHT22;24844;52.380;7.018;2023-07-29T15:36:12;24.30;99.90
39099;DHT22;24844;52.380;7.018;2023-07-29T15:45:24;23.70;99.90
39099;DHT22;24844;52.380;7.018;2023-07-29T15:47:52;23.50;99.90
39099;DHT22;24844;52.380;7.018;2023-07-29T15:50:41;23.00;99.90
39099;DHT22;24844;52.380;7.018;2023-07-29T15:53:16;22.90;99.90
39099;DHT22;24844;52.380;7.018;2023-07-29T15:56:29;22.90;99.90
39099;DHT22;24844;52.380;7.018;2023-07-29T16:03:31;23.10;99.90
39099;DHT22;24844;52.380;7.018;2023-07-29T16:06:30;23.00;99.90
39099;DHT22;24844;52.380;7.018;2023-07-29T16:09:01;22.60;99.90
39099;DHT22;24844;52.380;7.018;2023-07-29T16:18:46;22.80;99.90
39099;DHT22;24844;52.380;7.018;2023-07-29T16:21:18;22.70;99.90
39099;DHT22;24844;52.380;7.018;2023-07-29T16:24:07;22.90;99.90
39099;DHT22;24844;52.380;7.018;2023-07-29T16:26:52;22.90;99.90
39099;DHT22;24844;52.380;7.018;2023-07-29T16:29:36;22.80;99.90
39099;DHT22;24844;52.380;7.018;2023-07-29T16:32:07;22.90;99.90
39099;DHT22;24844;52.380;7.018;2023-07-29T16:34:33;23.20;99.90
39099;DHT22;24844;52.380;7.018;2023-07-29T16:36:59;22.90;99.90
39099;DHT22;24844;52.380;7.018;2023-07-29T16:40:21;23.00;99.90
39099;DHT22;24844;52.380;7.018;2023-07-29T16:42:51;22.90;99.90
39099;DHT22;24844;52.380;7.018;2023-07-29T16:45:27;23.00;99.90
39099;DHT22;24844;52.380;7.018;2023-07-29T16:48:34;23.10;99.90
39099;DHT22;24844;52.380;7.018;2023-07-29T16:51:29;23.10;99.90
39099;DHT22;24844;52.380;7.018;2023-07-29T16:54:06;22.80;99.90
39099;DHT22;24844;52.380;7.018;2023-07-29T16:56:32;23.00;99.90
39099;DHT22;24844;52.380;7.018;2023-07-29T16:59:03;22.90;99.90
39099;DHT22;24844;52.380;7.018;2023-07-29T17:01:57;23.00;99.90
39099;DHT22;24844;52.380;7.018;2023-07-29T17:04:36;23.10;99.90
39099;DHT22;24844;52.380;7.018;2023-07-29T17:10:37;23.00;99.90
39099;DHT22;24844;52.380;7.018;2023-07-29T17:13:08;22.60;99.90
39099;DHT22;24844;52.380;7.018;2023-07-29T17:15:37;22.70;99.90
39099;DHT22;24844;52.380;7.018;2023-07-29T17:18:24;22.90;99.90
39099;DHT22;24844;52.380;7.018;2023-07-29T17:20:53;23.10;99.90
39099;DHT22;24844;52.380;7.018;2023-07-29T17:23:38;23.00;99.90
39099;DHT22;24844;52.380;7.018;2023-07-29T17:26:13;23.10;99.90
39099;DHT22;24844;52.380;7.018;2023-07-29T17:28:55;23.10;99.90
39099;DHT22;24844;52.380;7.018;2023-07-29T17:31:34;23.10;99.90
39099;DHT22;24844;52.380;7.018;2023-07-29T17:34:11;23.10;99.90
39099;DHT22;24844;52.380;7.018;2023-07-29T17:36:39;23.10;99.90
39099;DHT22;24844;52.380;7.018;2023-07-29T17:39:05;22.80;99.90
39099;DHT22;24844;52.380;7.018;2023-07-29T17:41:36;22.80;99.90
39099;DHT22;24844;52.380;7.018;2023-07-29T17:44:17;22.90;99.90
39099;DHT22;24844;52.380;7.018;2023-07-29T17:46:56;22.80;99.90
39099;DHT22;24844;52.380;7.018;2023-07-29T17:49:31;22.90;99.90
39099;DHT22;24844;52.380;7.018;2023-07-29T17:52:35;22.80;99.90
39099;DHT22;24844;52.380;7.018;2023-07-29T17:55:43;22.70;99.90
39099;DHT22;24844;52.380;7.018;2023-07-29T17:58:30;22.80;99.90
39099;DHT22;24844;52.380;7.018;2023-07-29T18:01:47;23.00;99.90
39099;DHT22;24844;52.380;7.018;2023-07-29T18:04:41;22.80;99.90
39099;DHT22;24844;52.380;7.018;2023-07-29T18:07:24;22.80;99.90
39099;DHT22;24844;52.380;7.018;2023-07-29T18:13:06;22.60;99.90
39099;DHT22;24844;52.380;7.018;2023-07-29T18:15:35;22.50;99.90
39099;DHT22;24844;52.380;7.018;2023-07-29T18:18:01;22.20;99.90
39099;DHT22;24844;52.380;7.018;2023-07-29T18:20:29;22.50;99.90
39099;DHT22;24844;52.380;7.018;2023-07-29T18:23:02;22.60;99.90
39099;DHT22;24844;52.380;7.018;2023-07-29T18:25:36;22.50;99.90